Time;durP1;ratioP1;P1;durP2;ratioP2;P2;SDS_P1;SDS_P2;PMS_P1;PMS_P2;Temp;Humidity;BMP_temperature;BMP_pressure;BME280_temperature;BME280_humidity;BME280_pressure;Samples;Min_cycle;Max_cycle;Signal;HPM_P1;HPM_P2
2024/01/17 00:00:33;;;;;;;57.80;26.97;;;-2.60;99.90;;;;;;5038882;28;20230;-69
2024/01/17 00:03:06;;;;;;;63.83;29.90;;;-2.90;99.90;;;;;;5047553;28;20234;-69
2024/01/17 00:05:35;;;;;;;59.53;29.07;;;-3.00;99.90;;;;;;5039200;28;20705;-70
2024/01/17 00:08:04;;;;;;;62.67;29.87;;;-3.00;99.90;;;;;;5051666;28;20224;-69
2024/01/17 00:10:33;;;;;;;69.53;30.30;;;-2.90;99.90;;;;;;5052569;28;20220;-69
2024/01/17 00:13:02;;;;;;;74.07;32.07;;;-2.70;99.90;;;;;;5043133;28;20231;-69
2024/01/17 00:15:31;;;;;;;75.27;33.17;;;-2.70;99.90;;;;;;5049943;28;20650;-69
2024/01/17 00:18:00;;;;;;;69.30;33.47;;;-2.70;99.90;;;;;;5052719;28;21043;-69
2024/01/17 00:20:32;;;;;;;81.77;35.30;;;-2.70;99.90;;;;;;5051215;28;20216;-70
2024/01/17 00:23:01;;;;;;;71.50;33.33;;;-2.80;99.90;;;;;;5036885;28;20304;-69
2024/01/17 00:25:31;;;;;;;82.27;36.03;;;-2.90;99.90;;;;;;5054805;28;20224;-70
2024/01/17 00:28:01;;;;;;;81.67;36.47;;;-3.00;99.90;;;;;;5044641;28;20272;-70
2024/01/17 00:30:29;;;;;;;72.47;36.43;;;-2.90;99.90;;;;;;5051522;28;20270;-70
2024/01/17 00:32:58;;;;;;;86.60;38.53;;;-2.90;99.90;;;;;;5048569;28;20262;-70
2024/01/17 00:35:27;;;;;;;78.30;36.97;;;-3.00;99.90;;;;;;5055168;28;20238;-70
2024/01/17 00:37:58;;;;;;;81.27;36.17;;;-3.10;99.90;;;;;;5058048;28;20229;-70
2024/01/17 00:40:30;;;;;;;79.77;36.77;;;-3.10;99.90;;;;;;5041382;28;20244;-71
2024/01/17 00:42:59;;;;;;;85.03;37.70;;;-2.90;99.90;;;;;;5040513;28;20281;-70
2024/01/17 00:45:28;;;;;;;89.80;38.83;;;-2.90;99.90;;;;;;5037847;28;20231;-69
2024/01/17 00:47:57;;;;;;;90.67;40.33;;;-3.00;99.90;;;;;;5013697;28;20233;-69
2024/01/17 00:50:28;;;;;;;88.40;38.73;;;-3.00;99.90;;;;;;5035887;28;20710;-69
2024/01/17 00:52:58;;;;;;;85.87;39.60;;;-2.80;99.90;;;;;;5045715;28;20226;-70
2024/01/17 00:55:27;;;;;;;94.33;42.03;;;-2.80;99.90;;;;;;5043638;28;20768;-69
2024/01/17 00:57:56;;;;;;;97.20;41.13;;;-2.90;99.90;;;;;;5034476;28;20253;-70
2024/01/17 01:00:24;;;;;;;89.70;40.47;;;-2.90;99.90;;;;;;5025656;28;20235;-71
2024/01/17 01:02:53;;;;;;;94.27;40.53;;;-2.90;99.90;;;;;;5042048;28;20229;-70
2024/01/17 01:05:22;;;;;;;98.07;42.07;;;-2.80;99.90;;;;;;5035291;28;20225;-70
2024/01/17 01:07:52;;;;;;;94.63;40.67;;;-2.80;99.90;;;;;;5038130;28;20248;-70
2024/01/17 01:10:25;;;;;;;102.67;43.30;;;-2.70;99.90;;;;;;5038448;28;20241;-70
2024/01/17 01:12:54;;;;;;;98.13;40.77;;;-2.70;99.60;;;;;;5038044;28;21002;-69
2024/01/17 01:15:25;;;;;;;92.67;41.47;;;-2.60;99.90;;;;;;5037588;28;20229;-69
2024/01/17 01:17:54;;;;;;;90.70;41.60;;;-2.80;99.60;;;;;;5037840;28;20222;-70
2024/01/17 01:20:23;;;;;;;106.40;43.73;;;-2.70;99.80;;;;;;5041368;28;20246;-70
2024/01/17 01:22:52;;;;;;;103.30;42.57;;;-3.00;99.90;;;;;;5037094;28;20212;-70
2024/01/17 01:25:22;;;;;;;103.90;45.07;;;-2.90;99.70;;;;;;5024168;28;20235;-69
2024/01/17 01:27:52;;;;;;;104.97;41.83;;;-3.00;99.50;;;;;;5026786;28;20231;-71
2024/01/17 01:30:21;;;;;;;100.57;43.87;;;-2.90;99.90;;;;;;5045184;28;20241;-71
2024/01/17 01:32:50;;;;;;;94.47;42.57;;;-2.90;99.80;;;;;;5030332;28;20220;-70
2024/01/17 01:35:19;;;;;;;99.70;42.73;;;-3.10;99.60;;;;;;5022456;28;20226;-71
2024/01/17 01:37:47;;;;;;;97.13;41.23;;;-2.90;99.70;;;;;;5032818;28;20227;-70
2024/01/17 01:40:17;;;;;;;103.07;42.37;;;-2.90;99.60;;;;;;5025659;28;20227;-70
2024/01/17 01:42:46;;;;;;;89.73;39.60;;;-2.80;99.60;;;;;;5040984;28;20225;-71
2024/01/17 01:45:16;;;;;;;91.00;40.77;;;-2.80;99.80;;;;;;5042667;28;20218;-70
2024/01/17 01:47:45;;;;;;;86.77;39.47;;;-2.80;99.60;;;;;;5023606;28;20873;-70
2024/01/17 01:50:14;;;;;;;93.40;40.47;;;-2.90;99.90;;;;;;5036304;28;20236;-71
2024/01/17 01:52:45;;;;;;;89.63;39.50;;;-2.70;99.50;;;;;;5018009;28;20757;-71
2024/01/17 01:55:14;;;;;;;83.80;39.30;;;-2.80;99.30;;;;;;5038008;28;20329;-71
2024/01/17 01:57:46;;;;;;;87.30;37.90;;;-2.80;99.70;;;;;;5042119;28;20233;-71
2024/01/17 02:00:19;;;;;;;88.20;37.83;;;-2.90;99.40;;;;;;5040092;28;20235;-71
2024/01/17 02:02:48;;;;;;;86.13;37.23;;;-3.00;99.70;;;;;;5036642;28;20416;-70
2024/01/17 02:05:18;;;;;;;90.93;40.43;;;-2.80;99.80;;;;;;5038457;28;20224;-70
2024/01/17 02:07:49;;;;;;;86.43;38.00;;;-2.70;99.90;;;;;;5043457;28;20700;-70
2024/01/17 02:10:18;;;;;;;81.87;37.63;;;-2.70;99.70;;;;;;5022082;28;20318;-71
2024/01/17 02:12:48;;;;;;;85.13;38.13;;;-2.60;99.90;;;;;;5022248;28;20797;-72
2024/01/17 02:15:18;;;;;;;83.43;37.20;;;-2.50;99.80;;;;;;5038026;28;20253;-71
2024/01/17 02:17:49;;;;;;;87.87;38.10;;;-2.50;99.70;;;;;;5011668;28;20336;-70
2024/01/17 02:20:21;;;;;;;87.37;37.97;;;-2.50;99.60;;;;;;5038568;28;20217;-70
2024/01/17 02:22:49;;;;;;;81.23;36.60;;;-2.50;99.90;;;;;;5013049;28;20579;-70
2024/01/17 02:25:19;;;;;;;79.80;36.53;;;-2.50;99.90;;;;;;5040536;28;20234;-70
2024/01/17 02:27:49;;;;;;;80.77;36.60;;;-2.40;99.50;;;;;;5037774;28;20228;-70
2024/01/17 02:30:18;;;;;;;71.37;35.53;;;-2.40;99.70;;;;;;5018198;28;20679;-70
2024/01/17 02:32:48;;;;;;;71.07;34.97;;;-2.40;99.50;;;;;;5029867;28;20230;-70
2024/01/17 02:35:20;;;;;;;79.67;36.20;;;-2.40;99.40;;;;;;5035420;28;20323;-70
2024/01/17 02:37:48;;;;;;;78.90;35.70;;;-2.30;99.90;;;;;;5036408;28;20306;-70
2024/01/17 02:40:17;;;;;;;68.83;32.30;;;-2.30;99.30;;;;;;5034454;28;20220;-71
2024/01/17 02:42:47;;;;;;;70.63;34.30;;;-2.30;99.40;;;;;;5033064;28;20253;-71
2024/01/17 02:45:16;;;;;;;75.77;34.07;;;-2.30;99.20;;;;;;5021650;28;20221;-69
2024/01/17 02:47:46;;;;;;;76.00;34.47;;;-2.20;99.40;;;;;;5026899;28;20312;-71
2024/01/17 02:50:16;;;;;;;69.37;34.27;;;-2.30;99.00;;;;;;5020637;28;20228;-70
2024/01/17 02:52:45;;;;;;;62.90;31.37;;;-2.20;99.20;;;;;;5032040;28;20326;-71
2024/01/17 02:55:15;;;;;;;69.40;32.47;;;-2.20;99.20;;;;;;5039599;28;20230;-71
2024/01/17 02:57:45;;;;;;;70.33;31.13;;;-2.10;99.50;;;;;;5030119;28;20228;-71
2024/01/17 03:00:15;;;;;;;67.03;31.47;;;-2.10;98.70;;;;;;5038664;28;20314;-71
2024/01/17 03:02:44;;;;;;;68.90;30.40;;;-2.10;98.90;;;;;;5014838;28;20633;-71
2024/01/17 03:05:16;;;;;;;66.63;31.70;;;-2.10;99.00;;;;;;5034055;28;20263;-71
2024/01/17 03:07:45;;;;;;;69.03;31.50;;;-2.20;98.80;;;;;;5023278;28;20235;-71
2024/01/17 03:10:15;;;;;;;63.63;30.87;;;-2.20;98.80;;;;;;5021819;28;20240;-71
2024/01/17 03:12:44;;;;;;;64.67;31.43;;;-2.20;98.60;;;;;;5035387;28;20773;-71
2024/01/17 03:15:16;;;;;;;64.80;30.87;;;-2.10;98.70;;;;;;5039202;28;20224;-71
2024/01/17 03:17:46;;;;;;;72.77;31.50;;;-2.10;98.40;;;;;;5032743;28;20751;-71
2024/01/17 03:20:15;;;;;;;68.53;31.73;;;-2.00;98.40;;;;;;5038768;28;20232;-70
2024/01/17 03:22:44;;;;;;;64.93;30.03;;;-1.80;98.50;;;;;;5025517;28;20302;-70
2024/01/17 03:25:13;;;;;;;69.47;30.17;;;-1.80;97.90;;;;;;5039172;28;20593;-69
2024/01/17 03:27:42;;;;;;;60.60;30.27;;;-1.90;98.20;;;;;;5036193;28;20224;-70
2024/01/17 03:30:12;;;;;;;63.80;29.43;;;-1.90;98.30;;;;;;5038264;28;20221;-70
2024/01/17 03:32:43;;;;;;;63.10;30.57;;;-1.80;98.40;;;;;;5039160;28;20230;-70
2024/01/17 03:35:13;;;;;;;61.40;29.40;;;-1.80;97.90;;;;;;5037843;28;20213;-70
2024/01/17 03:37:41;;;;;;;65.27;29.67;;;-1.90;97.80;;;;;;5013979;28;20279;-70
2024/01/17 03:40:11;;;;;;;60.33;29.60;;;-2.00;98.10;;;;;;5044878;28;20230;-70
2024/01/17 03:42:40;;;;;;;61.70;28.40;;;-1.90;97.90;;;;;;5021936;28;20264;-70
2024/01/17 03:45:10;;;;;;;58.23;27.87;;;-1.90;98.30;;;;;;5038730;28;20230;-71
2024/01/17 03:47:39;;;;;;;60.93;28.37;;;-1.90;98.10;;;;;;5033785;28;20254;-70
2024/01/17 03:50:10;;;;;;;58.60;27.63;;;-1.80;97.60;;;;;;5021494;28;20314;-70
2024/01/17 03:52:40;;;;;;;63.37;29.13;;;-1.80;97.40;;;;;;5033327;28;20318;-71
2024/01/17 03:55:09;;;;;;;56.80;29.03;;;-1.80;97.70;;;;;;5023020;28;20224;-71
2024/01/17 03:57:38;;;;;;;59.97;28.13;;;-1.80;97.40;;;;;;5019138;28;20212;-70
2024/01/17 04:00:10;;;;;;;55.03;27.57;;;-1.80;97.60;;;;;;5011339;28;20728;-71
2024/01/17 04:02:39;;;;;;;56.53;27.10;;;-1.80;97.40;;;;;;5038778;28;20249;-70
2024/01/17 04:05:10;;;;;;;56.93;27.73;;;-1.80;97.30;;;;;;5013242;28;20225;-71
2024/01/17 04:07:39;;;;;;;59.23;26.87;;;-1.70;97.40;;;;;;5019239;28;20244;-71
2024/01/17 04:10:09;;;;;;;56.43;26.53;;;-1.80;96.90;;;;;;5020080;28;20414;-69
2024/01/17 04:12:38;;;;;;;58.40;28.10;;;-1.70;97.30;;;;;;5038385;28;20231;-70
2024/01/17 04:15:08;;;;;;;56.27;26.37;;;-1.70;97.40;;;;;;5035627;28;20312;-70
2024/01/17 04:17:36;;;;;;;54.53;26.03;;;-1.70;97.00;;;;;;5035591;28;20216;-70
2024/01/17 04:20:06;;;;;;;53.00;26.00;;;-1.70;96.70;;;;;;5020544;28;20227;-70
2024/01/17 04:22:37;;;;;;;56.17;25.97;;;-1.90;96.90;;;;;;5022892;28;20275;-69
2024/01/17 04:25:06;;;;;;;56.60;27.53;;;-1.90;97.00;;;;;;5036093;28;20224;-69
2024/01/17 04:27:35;;;;;;;51.67;26.43;;;-1.90;97.00;;;;;;5025969;28;20574;-69
2024/01/17 04:30:05;;;;;;;49.13;26.23;;;-1.90;97.00;;;;;;5014803;28;20236;-69
2024/01/17 04:32:35;;;;;;;54.77;25.87;;;-1.90;97.10;;;;;;5021394;28;20301;-71
2024/01/17 04:35:05;;;;;;;53.27;25.17;;;-1.90;96.70;;;;;;5038815;28;20586;-69
2024/01/17 04:37:33;;;;;;;55.77;25.57;;;-1.80;96.60;;;;;;5024466;28;20228;-69
2024/01/17 04:40:06;;;;;;;52.67;25.47;;;-1.80;96.50;;;;;;5036071;28;20813;-69
2024/01/17 04:42:34;;;;;;;54.63;25.03;;;-1.80;96.80;;;;;;5040586;28;20224;-69
2024/01/17 04:45:04;;;;;;;58.17;25.80;;;-1.80;96.90;;;;;;5049379;28;20253;-69
2024/01/17 04:47:33;;;;;;;54.57;25.17;;;-1.80;96.40;;;;;;5017707;28;20327;-70
2024/01/17 04:50:03;;;;;;;51.33;25.70;;;-1.90;96.70;;;;;;5023762;28;20217;-70
2024/01/17 04:52:32;;;;;;;55.63;25.13;;;-1.90;96.60;;;;;;5026919;28;20312;-70
2024/01/17 04:55:04;;;;;;;59.10;25.17;;;-2.00;99.90;;;;;;5024641;28;20229;-70
2024/01/17 04:57:33;;;;;;;53.83;24.23;;;-2.00;96.60;;;;;;5038147;28;20231;-70
2024/01/17 05:00:02;;;;;;;55.07;24.90;;;-2.00;96.50;;;;;;5039347;28;20224;-71
2024/01/17 05:02:31;;;;;;;51.20;25.03;;;-2.10;96.60;;;;;;5039341;28;20681;-71
2024/01/17 05:05:00;;;;;;;51.47;24.90;;;-1.90;96.70;;;;;;5039598;28;20228;-71
2024/01/17 05:07:29;;;;;;;47.37;23.80;;;-1.90;96.50;;;;;;5028514;28;20336;-72
2024/01/17 05:09:57;;;;;;;55.20;24.90;;;-1.90;96.30;;;;;;5027429;28;20236;-71
2024/01/17 05:12:27;;;;;;;53.80;25.73;;;-2.00;96.50;;;;;;5043754;28;20237;-71
2024/01/17 05:14:58;;;;;;;53.97;23.53;;;-1.90;96.30;;;;;;5024327;28;20740;-70
2024/01/17 05:17:26;;;;;;;59.83;24.80;;;-2.00;96.50;;;;;;5036833;28;20228;-70
2024/01/17 05:19:55;;;;;;;49.80;23.70;;;-1.90;96.90;;;;;;5037627;28;20863;-71
2024/01/17 05:22:24;;;;;;;43.27;22.80;;;-1.80;96.10;;;;;;5039119;28;20228;-70
2024/01/17 05:24:53;;;;;;;49.77;23.57;;;-1.80;96.30;;;;;;5014351;28;20232;-70
2024/01/17 05:27:22;;;;;;;45.27;23.07;;;-1.70;96.00;;;;;;5038059;28;20724;-70
2024/01/17 05:29:52;;;;;;;47.00;23.27;;;-1.80;95.80;;;;;;5035461;28;20324;-70
2024/01/17 05:32:22;;;;;;;46.87;23.03;;;-1.70;95.80;;;;;;5022323;28;20352;-71
2024/01/17 05:34:53;;;;;;;42.60;21.73;;;-1.80;95.70;;;;;;5035205;28;20312;-71
2024/01/17 05:37:23;;;;;;;52.87;23.87;;;-1.70;95.60;;;;;;5039908;28;20225;-70
2024/01/17 05:39:52;;;;;;;51.87;22.97;;;-1.70;95.70;;;;;;5039815;28;20224;-70
2024/01/17 05:42:21;;;;;;;50.60;23.27;;;-1.70;95.80;;;;;;5020081;28;20505;-71
2024/01/17 05:44:49;;;;;;;50.80;22.00;;;-1.80;95.50;;;;;;5025031;28;20217;-70
2024/01/17 05:47:21;;;;;;;50.00;23.07;;;-1.90;95.70;;;;;;5015565;28;20233;-71
2024/01/17 05:49:50;;;;;;;46.47;22.53;;;-1.80;99.90;;;;;;5037736;28;20296;-71
2024/01/17 05:52:20;;;;;;;47.53;22.43;;;-1.80;96.00;;;;;;5038700;28;20229;-71
2024/01/17 05:54:49;;;;;;;41.40;21.57;;;-1.80;95.30;;;;;;5023119;28;20252;-72
2024/01/17 05:57:18;;;;;;;46.80;22.53;;;-1.70;95.40;;;;;;5039129;28;20225;-71
2024/01/17 05:59:47;;;;;;;49.13;24.30;;;-1.60;95.50;;;;;;5035843;28;20220;-71
2024/01/17 06:02:16;;;;;;;47.27;22.93;;;-1.50;94.80;;;;;;5041777;28;20212;-71
2024/01/17 06:04:46;;;;;;;47.70;23.13;;;-1.50;94.80;;;;;;5034142;28;20239;-70
2024/01/17 06:07:16;;;;;;;47.07;23.23;;;-1.60;95.00;;;;;;5032118;28;20317;-70
2024/01/17 06:09:45;;;;;;;45.27;22.87;;;-1.60;95.20;;;;;;5037740;28;20213;-70
2024/01/17 06:12:14;;;;;;;53.87;23.27;;;-1.70;95.30;;;;;;5038290;28;20767;-71
2024/01/17 06:14:43;;;;;;;46.87;22.07;;;-1.60;95.20;;;;;;5040265;28;20741;-71
2024/01/17 06:17:12;;;;;;;51.70;21.80;;;-1.60;95.20;;;;;;5035607;28;20244;-71
2024/01/17 06:19:41;;;;;;;50.37;24.00;;;-1.80;95.10;;;;;;5038601;28;20294;-71
2024/01/17 06:22:12;;;;;;;47.80;22.67;;;-1.80;95.40;;;;;;5034744;28;20229;-70
2024/01/17 06:24:41;;;;;;;46.17;22.83;;;-1.80;95.30;;;;;;5040220;28;20261;-71
2024/01/17 06:27:10;;;;;;;49.27;22.17;;;-1.80;95.40;;;;;;5036032;28;20963;-71
2024/01/17 06:29:42;;;;;;;46.73;23.03;;;-1.80;99.90;;;;;;5038842;28;20232;-71
2024/01/17 06:32:11;;;;;;;43.07;22.83;;;-1.80;99.90;;;;;;5024128;28;20230;-70
2024/01/17 06:34:40;;;;;;;50.57;23.10;;;-1.90;95.40;;;;;;5036093;28;20220;-69
2024/01/17 06:37:11;;;;;;;47.70;22.93;;;-1.90;95.50;;;;;;5036122;28;20227;-69
2024/01/17 06:39:41;;;;;;;47.73;22.67;;;-1.90;95.50;;;;;;5039239;28;20783;-69
2024/01/17 06:42:09;;;;;;;47.70;22.27;;;-2.00;95.60;;;;;;5042266;28;20233;-71
2024/01/17 06:44:39;;;;;;;52.87;23.17;;;-2.00;95.50;;;;;;5020182;28;20226;-69
2024/01/17 06:47:08;;;;;;;46.53;21.77;;;-2.00;95.90;;;;;;5034349;28;20235;-70
2024/01/17 06:49:39;;;;;;;44.17;22.27;;;-2.00;95.50;;;;;;5020403;28;20774;-71
2024/01/17 06:52:08;;;;;;;48.73;22.53;;;-1.90;95.40;;;;;;5035931;28;20305;-70
2024/01/17 06:54:39;;;;;;;43.87;22.90;;;-2.00;95.40;;;;;;5019864;28;20217;-70
2024/01/17 06:57:08;;;;;;;50.53;23.53;;;-2.00;96.10;;;;;;5030445;28;20770;-70
2024/01/17 06:59:37;;;;;;;45.13;22.33;;;-2.00;95.40;;;;;;5036256;28;20220;-70
2024/01/17 07:02:08;;;;;;;48.77;24.30;;;-2.00;95.40;;;;;;5046271;28;20748;-68
2024/01/17 07:04:40;;;;;;;44.43;21.87;;;-2.00;95.40;;;;;;5037308;28;20312;-73
2024/01/17 07:07:09;;;;;;;48.17;23.40;;;-1.90;95.80;;;;;;5036396;28;20263;-74
2024/01/17 07:09:39;;;;;;;48.93;23.33;;;-1.80;95.20;;;;;;5021590;28;20311;-74
2024/01/17 07:12:08;;;;;;;55.93;27.33;;;-1.90;95.30;;;;;;5021359;28;20302;-75
2024/01/17 07:14:37;;;;;;;59.13;24.93;;;-2.00;95.40;;;;;;5037015;28;20223;-69
2024/01/17 07:17:06;;;;;;;49.80;24.13;;;-2.20;95.70;;;;;;5036788;28;20862;-70
2024/01/17 07:19:38;;;;;;;51.83;24.33;;;-2.20;95.80;;;;;;5038189;28;20217;-71
2024/01/17 07:22:09;;;;;;;56.93;25.33;;;-2.20;95.70;;;;;;5035668;28;20235;-71
2024/01/17 07:24:39;;;;;;;51.47;25.43;;;-2.20;95.80;;;;;;5038645;28;20322;-69
2024/01/17 07:27:08;;;;;;;50.60;25.10;;;-2.20;95.60;;;;;;5037114;28;20256;-69
2024/01/17 07:29:37;;;;;;;54.83;26.63;;;-2.20;95.40;;;;;;5040065;28;20315;-70
2024/01/17 07:32:06;;;;;;;58.33;28.10;;;-2.20;95.10;;;;;;5030163;28;20232;-70
2024/01/17 07:34:37;;;;;;;58.43;27.20;;;-2.30;95.50;;;;;;5032148;28;20322;-69
2024/01/17 07:37:06;;;;;;;57.97;27.07;;;-2.40;95.40;;;;;;5038695;28;20603;-69
2024/01/17 07:39:34;;;;;;;57.03;27.30;;;-2.50;95.60;;;;;;5028513;28;20531;-70
2024/01/17 07:42:06;;;;;;;54.43;26.83;;;-2.40;95.60;;;;;;5035505;28;20274;-69
2024/01/17 07:44:35;;;;;;;59.70;27.07;;;-2.40;95.70;;;;;;5039526;28;20237;-69
2024/01/17 07:47:04;;;;;;;54.90;27.73;;;-2.30;95.40;;;;;;5037176;28;20220;-69
2024/01/17 07:49:37;;;;;;;58.60;26.77;;;-2.30;95.90;;;;;;5037380;28;20238;-69
2024/01/17 07:52:06;;;;;;;59.57;28.63;;;-2.40;95.50;;;;;;5006015;28;20249;-70
2024/01/17 07:54:36;;;;;;;56.20;27.50;;;-2.30;95.30;;;;;;5041807;28;20229;-70
2024/01/17 07:57:07;;;;;;;57.30;29.17;;;-2.30;95.50;;;;;;5035481;28;20225;-70
2024/01/17 07:59:38;;;;;;;58.57;28.67;;;-2.60;95.50;;;;;;5040788;28;20220;-71
2024/01/17 08:02:07;;;;;;;60.80;27.40;;;-2.50;95.40;;;;;;5041218;28;20242;-71
2024/01/17 08:04:36;;;;;;;62.57;27.57;;;-2.70;95.60;;;;;;5021244;28;20220;-70
2024/01/17 08:07:05;;;;;;;62.53;27.27;;;-2.60;95.30;;;;;;5043131;28;20525;-70
2024/01/17 08:09:34;;;;;;;62.93;27.77;;;-2.50;95.40;;;;;;5037632;28;20295;-72
2024/01/17 08:12:04;;;;;;;57.50;27.10;;;-2.60;95.30;;;;;;5037913;28;20323;-70
2024/01/17 08:14:36;;;;;;;57.70;27.80;;;-2.50;95.40;;;;;;5043111;28;20225;-70
2024/01/17 08:17:05;;;;;;;58.13;28.10;;;-2.30;95.50;;;;;;5036798;28;20317;-72
2024/01/17 08:19:34;;;;;;;59.93;27.40;;;-2.40;94.80;;;;;;5037586;28;20244;-73
2024/01/17 08:22:04;;;;;;;61.20;26.57;;;-2.40;95.00;;;;;;5015295;28;20228;-72
2024/01/17 08:24:34;;;;;;;54.00;27.03;;;-2.40;95.20;;;;;;5041097;28;20622;-72
2024/01/17 08:27:06;;;;;;;54.53;27.93;;;-2.40;94.90;;;;;;5040170;28;20224;-71
2024/01/17 08:29:37;;;;;;;60.97;27.97;;;-2.50;95.10;;;;;;5045632;28;20249;-71
2024/01/17 08:32:07;;;;;;;60.33;29.23;;;-2.40;94.90;;;;;;5032225;28;20228;-71
2024/01/17 08:34:35;;;;;;;54.53;26.97;;;-2.40;95.10;;;;;;5020754;28;20314;-72
2024/01/17 08:37:04;;;;;;;53.33;26.37;;;-2.30;95.00;;;;;;5016304;28;20249;-73
2024/01/17 08:39:35;;;;;;;60.63;28.37;;;-2.20;94.80;;;;;;5036548;28;20226;-73
2024/01/17 08:42:04;;;;;;;55.10;26.43;;;-2.30;95.00;;;;;;5019987;28;20256;-73
2024/01/17 08:44:32;;;;;;;58.03;28.27;;;-2.20;94.70;;;;;;5007818;28;20222;-72
2024/01/17 08:47:03;;;;;;;55.33;26.57;;;-2.20;95.00;;;;;;5012102;28;20226;-72
2024/01/17 08:49:32;;;;;;;53.33;27.00;;;-2.20;97.40;;;;;;5023083;28;20252;-72
2024/01/17 08:52:03;;;;;;;60.77;28.53;;;-2.00;94.70;;;;;;5000979;28;20584;-73
2024/01/17 08:54:34;;;;;;;58.07;26.40;;;-1.90;95.80;;;;;;5014498;28;20320;-72
2024/01/17 08:57:04;;;;;;;53.27;25.87;;;-1.90;95.00;;;;;;5017902;28;20718;-72
2024/01/17 08:59:35;;;;;;;55.63;26.67;;;-1.70;94.60;;;;;;5020975;28;20882;-71
2024/01/17 09:02:07;;;;;;;55.77;27.67;;;-1.80;94.40;;;;;;5035373;28;20570;-70
2024/01/17 09:04:36;;;;;;;57.53;27.20;;;-1.70;94.70;;;;;;5045373;28;20233;-71
2024/01/17 09:07:05;;;;;;;52.90;26.40;;;-1.60;94.60;;;;;;5035931;28;20698;-71
2024/01/17 09:09:36;;;;;;;52.50;26.63;;;-1.60;94.60;;;;;;5019103;28;20220;-70
2024/01/17 09:12:06;;;;;;;52.57;26.10;;;-1.60;94.30;;;;;;5014857;28;20217;-71
2024/01/17 09:14:34;;;;;;;53.93;24.83;;;-1.60;94.50;;;;;;5021983;28;20319;-71
2024/01/17 09:17:04;;;;;;;53.73;27.83;;;-1.50;94.50;;;;;;5038659;28;20234;-71
2024/01/17 09:19:34;;;;;;;51.00;25.43;;;-1.50;94.50;;;;;;5038833;28;20244;-71
2024/01/17 09:22:05;;;;;;;56.80;26.20;;;-1.50;94.70;;;;;;5039472;28;20275;-71
2024/01/17 09:24:34;;;;;;;52.00;26.70;;;-1.30;94.50;;;;;;5024723;28;20252;-71
2024/01/17 09:27:02;;;;;;;57.93;26.70;;;-1.40;95.00;;;;;;5040003;28;20311;-71
2024/01/17 09:29:33;;;;;;;50.13;25.40;;;-1.30;94.00;;;;;;5045302;28;20220;-72
2024/01/17 09:32:04;;;;;;;52.77;26.53;;;-1.40;94.10;;;;;;5031310;28;20224;-72
2024/01/17 09:34:34;;;;;;;60.00;28.00;;;-1.20;94.30;;;;;;5014724;28;20282;-72
2024/01/17 09:37:04;;;;;;;52.30;26.50;;;-1.20;93.70;;;;;;5036612;28;20224;-72
2024/01/17 09:39:33;;;;;;;56.07;27.53;;;-1.30;94.10;;;;;;5034300;28;21040;-72
2024/01/17 09:42:06;;;;;;;54.17;26.57;;;-1.10;99.90;;;;;;5014338;28;20239;-72
2024/01/17 09:44:36;;;;;;;59.83;28.27;;;-1.10;94.20;;;;;;5036591;28;20221;-72
2024/01/17 09:47:06;;;;;;;56.10;26.63;;;-1.00;94.00;;;;;;5038097;28;20235;-73
2024/01/17 09:49:39;;;;;;;59.40;29.00;;;-0.90;93.50;;;;;;5028699;28;20230;-72
2024/01/17 09:52:09;;;;;;;60.07;27.77;;;-0.90;93.70;;;;;;5048276;28;20310;-72
2024/01/17 09:54:42;;;;;;;54.33;28.00;;;-0.90;93.80;;;;;;5028496;28;20224;-72
2024/01/17 09:57:14;;;;;;;58.00;27.83;;;-0.80;94.10;;;;;;5037177;28;20241;-72
2024/01/17 09:59:50;;;;;;;66.20;28.80;;;-1.00;93.30;;;;;;5039087;28;20247;-72
2024/01/17 10:02:20;;;;;;;61.90;28.27;;;-1.20;94.10;;;;;;5036661;28;20356;-72
2024/01/17 10:04:51;;;;;;;60.73;30.50;;;-1.00;94.10;;;;;;5004915;28;20323;-72
2024/01/17 10:07:20;;;;;;;61.73;30.30;;;-1.00;94.40;;;;;;5021060;28;20232;-71
2024/01/17 10:09:50;;;;;;;59.23;30.70;;;-1.20;93.70;;;;;;5039299;28;20227;-72
2024/01/17 10:12:19;;;;;;;57.30;30.07;;;-1.30;94.10;;;;;;5031595;28;20315;-72
2024/01/17 10:14:49;;;;;;;58.87;30.07;;;-1.30;94.20;;;;;;5031248;28;20232;-72
2024/01/17 10:17:18;;;;;;;55.87;29.73;;;-1.50;94.60;;;;;;5017026;28;20747;-71
2024/01/17 10:19:47;;;;;;;60.93;31.50;;;-1.40;94.50;;;;;;5041617;28;20225;-73
2024/01/17 10:22:19;;;;;;;62.97;30.33;;;-1.40;94.50;;;;;;5042279;28;20315;-73
2024/01/17 10:24:53;;;;;;;60.67;29.50;;;-1.30;94.50;;;;;;5050350;28;20228;-72
2024/01/17 10:27:23;;;;;;;57.30;28.80;;;-1.30;94.90;;;;;;5031983;28;20251;-73
2024/01/17 10:29:52;;;;;;;53.43;28.67;;;-1.30;94.60;;;;;;5026969;28;20225;-73
2024/01/17 10:32:22;;;;;;;57.67;28.43;;;-1.20;94.20;;;;;;5039634;28;20230;-73
2024/01/17 10:34:51;;;;;;;65.50;30.03;;;-1.40;94.40;;;;;;5029685;28;20225;-73
2024/01/17 10:37:23;;;;;;;54.43;29.63;;;-1.40;94.30;;;;;;5036002;28;20229;-74
2024/01/17 10:40:11;;;;;;;61.53;29.40;;;-1.40;94.50;;;;;;5029786;28;20295;-74
2024/01/17 10:42:41;;;;;;;65.23;30.33;;;-1.30;94.50;;;;;;5037608;28;20223;-72
2024/01/17 10:45:21;;;;;;;62.30;29.73;;;-1.40;94.20;;;;;;5035068;28;20231;-73
2024/01/17 10:47:49;;;;;;;62.30;28.73;;;-1.30;94.70;;;;;;5050359;28;20822;-72
2024/01/17 10:50:20;;;;;;;60.80;31.03;;;-1.20;94.50;;;;;;5041055;28;21131;-73
2024/01/17 10:52:52;;;;;;;60.17;28.83;;;-1.20;94.20;;;;;;5036073;28;20236;-75
2024/01/17 10:55:26;;;;;;;55.30;29.40;;;-1.00;94.30;;;;;;5042221;28;20228;-75
2024/01/17 10:58:00;;;;;;;54.77;29.27;;;-1.00;94.10;;;;;;5035434;28;20313;-75
2024/01/17 11:00:31;;;;;;;55.90;28.07;;;-0.90;94.60;;;;;;5035640;28;20267;-75
2024/01/17 11:03:01;;;;;;;57.60;29.87;;;-0.70;94.40;;;;;;5035765;28;20288;-75
2024/01/17 11:05:31;;;;;;;60.70;29.43;;;-0.60;94.00;;;;;;5038592;28;20730;-76
2024/01/17 11:08:02;;;;;;;55.53;28.63;;;-0.60;94.00;;;;;;5044621;28;20278;-75
2024/01/17 11:10:33;;;;;;;64.20;28.90;;;-0.60;93.50;;;;;;5035375;28;20225;-75
2024/01/17 11:13:03;;;;;;;56.47;28.30;;;-0.50;94.20;;;;;;5036247;28;20302;-76
2024/01/17 11:15:33;;;;;;;51.30;28.43;;;-0.40;93.50;;;;;;5035077;28;20311;-75
2024/01/17 11:18:03;;;;;;;51.27;26.03;;;-0.40;93.90;;;;;;4998923;28;20216;-74
2024/01/17 11:20:32;;;;;;;51.63;26.17;;;-0.30;93.60;;;;;;5043063;28;20701;-75
2024/01/17 11:23:03;;;;;;;54.17;27.27;;;-0.30;93.60;;;;;;5037894;28;20239;-75
2024/01/17 11:25:37;;;;;;;54.90;27.77;;;-0.30;93.50;;;;;;5021875;28;20217;-75
2024/01/17 11:28:16;;;;;;;55.77;26.47;;;-0.20;93.90;;;;;;5029202;28;20239;-75
2024/01/17 11:30:58;;;;;;;56.57;27.03;;;0.00;93.50;;;;;;5031316;28;20320;-76
2024/01/17 11:33:30;;;;;;;51.90;26.23;;;0.00;93.10;;;;;;5022676;28;20235;-75
2024/01/17 11:36:01;;;;;;;51.03;25.17;;;0.10;93.10;;;;;;5035037;28;20801;-75
2024/01/17 11:38:33;;;;;;;47.03;25.23;;;0.10;93.20;;;;;;5023285;28;20231;-74
2024/01/17 11:41:08;;;;;;;45.80;23.20;;;0.10;93.40;;;;;;5036205;28;20239;-74
2024/01/17 11:43:39;;;;;;;47.33;24.67;;;0.00;93.30;;;;;;5040382;28;20224;-74
2024/01/17 11:46:10;;;;;;;47.50;24.93;;;0.10;93.00;;;;;;5038193;28;20217;-75
2024/01/17 11:48:41;;;;;;;43.97;23.27;;;0.20;93.00;;;;;;5031080;28;20228;-75
2024/01/17 11:51:21;;;;;;;46.63;24.03;;;0.40;92.90;;;;;;5031093;28;20228;-75
2024/01/17 11:53:53;;;;;;;42.47;22.00;;;0.40;92.80;;;;;;5036183;28;20235;-75
2024/01/17 11:56:26;;;;;;;43.90;22.77;;;0.50;92.20;;;;;;5031621;28;20856;-74
2024/01/17 11:59:12;;;;;;;41.77;21.50;;;0.60;92.30;;;;;;5031192;28;20217;-75
2024/01/17 12:01:44;;;;;;;42.77;21.70;;;0.50;92.00;;;;;;5029455;28;20554;-75
2024/01/17 12:04:14;;;;;;;37.90;20.97;;;0.60;92.20;;;;;;5012298;28;20355;-74
2024/01/17 12:06:48;;;;;;;37.50;20.13;;;0.60;92.30;;;;;;5049848;28;20213;-72
2024/01/17 12:09:19;;;;;;;38.73;19.77;;;0.50;92.50;;;;;;5022475;28;20879;-72
2024/01/17 12:11:54;;;;;;;42.93;20.53;;;0.30;92.50;;;;;;5015905;28;20216;-72
2024/01/17 12:14:24;;;;;;;34.60;19.13;;;0.40;93.10;;;;;;5034175;28;20280;-73
2024/01/17 12:16:53;;;;;;;36.83;19.57;;;0.40;92.50;;;;;;5021360;28;20235;-72
2024/01/17 12:19:22;;;;;;;38.43;19.93;;;0.40;92.60;;;;;;5011833;28;20864;-73
2024/01/17 12:21:51;;;;;;;36.60;18.93;;;0.30;92.50;;;;;;5028109;28;20300;-73
2024/01/17 12:24:24;;;;;;;34.13;18.73;;;0.40;93.10;;;;;;5038198;28;20263;-73
2024/01/17 12:27:12;;;;;;;32.33;18.27;;;0.40;93.40;;;;;;5036954;28;20282;-74
2024/01/17 12:29:42;;;;;;;34.93;19.33;;;0.50;92.70;;;;;;5031068;28;20729;-72
2024/01/17 12:32:11;;;;;;;36.53;19.07;;;0.40;93.00;;;;;;5039367;28;20312;-73
2024/01/17 12:34:39;;;;;;;35.50;19.03;;;0.50;93.20;;;;;;5037842;28;20304;-73
2024/01/17 12:37:10;;;;;;;33.23;17.90;;;0.70;93.00;;;;;;5036407;28;20842;-72
2024/01/17 12:39:46;;;;;;;42.93;19.00;;;0.60;92.50;;;;;;5041453;28;20221;-72
2024/01/17 12:42:16;;;;;;;36.47;18.10;;;0.60;92.90;;;;;;5019454;28;20234;-73